Time;durP1;ratioP1;P1;durP2;ratioP2;P2;SDS_P1;SDS_P2;PMS_P1;PMS_P2;Temp;Humidity;BMP_temperature;BMP_pressure;BME280_temperature;BME280_humidity;BME280_pressure;Samples;Min_cycle;Max_cycle;Signal;HPM_P1;HPM_P2
2021/05/28 00:01:12;;;;;;;5.30;3.22;;;;;;;;;;5050995;28;20021;-77
2021/05/28 00:03:37;;;;;;;5.28;3.60;;;;;;;;;;5064313;28;20519;-78
2021/05/28 00:06:02;;;;;;;6.05;3.50;;;;;;;;;;5051735;28;20035;-79
2021/05/28 00:08:27;;;;;;;7.15;3.40;;;;;;;;;;5057451;28;20029;-78
2021/05/28 00:10:52;;;;;;;5.93;3.60;;;;;;;;;;5051119;28;20476;-78
2021/05/28 00:13:18;;;;;;;6.88;3.42;;;;;;;;;;5052492;28;20040;-77
2021/05/28 00:15:43;;;;;;;5.53;3.40;;;;;;;;;;5058047;28;20016;-77
2021/05/28 00:18:08;;;;;;;6.43;3.58;;;;;;;;;;5056662;28;20067;-77
2021/05/28 00:20:33;;;;;;;7.00;3.55;;;;;;;;;;5056615;28;20016;-77
2021/05/28 00:22:59;;;;;;;6.13;3.28;;;;;;;;;;5060493;28;20151;-77
2021/05/28 00:25:24;;;;;;;6.18;3.50;;;;;;;;;;5030450;28;20383;-77
2021/05/28 00:27:49;;;;;;;5.28;3.55;;;;;;;;;;5045490;28;20079;-76
2021/05/28 00:30:14;;;;;;;4.35;3.22;;;;;;;;;;5048607;28;20372;-77
2021/05/28 00:32:40;;;;;;;5.45;3.38;;;;;;;;;;5061489;28;20132;-77
2021/05/28 00:35:05;;;;;;;7.03;3.13;;;;;;;;;;5055258;28;20020;-75
2021/05/28 00:37:30;;;;;;;4.78;3.30;;;;;;;;;;5047039;28;20112;-78
2021/05/28 00:39:56;;;;;;;4.63;3.10;;;;;;;;;;5050682;28;20096;-77
2021/05/28 00:42:21;;;;;;;5.43;3.85;;;;;;;;;;5049538;28;20116;-77
2021/05/28 00:44:46;;;;;;;4.35;3.17;;;;;;;;;;5056079;28;20033;-77
2021/05/28 00:47:11;;;;;;;4.28;3.35;;;;;;;;;;5056093;28;20039;-76
2021/05/28 00:49:36;;;;;;;4.78;2.92;;;;;;;;;;5056888;28;20286;-76
2021/05/28 00:52:02;;;;;;;4.38;2.67;;;;;;;;;;5050965;28;20055;-78
2021/05/28 00:54:27;;;;;;;4.78;3.13;;;;;;;;;;5049916;28;20074;-76
2021/05/28 00:56:53;;;;;;;5.50;3.42;;;;;;;;;;5048761;28;20070;-77
2021/05/28 00:59:18;;;;;;;3.95;3.08;;;;;;;;;;5050965;28;20025;-76
2021/05/28 01:01:44;;;;;;;4.43;3.10;;;;;;;;;;5057019;28;20027;-77
2021/05/28 01:04:09;;;;;;;4.32;2.90;;;;;;;;;;5049143;28;20060;-77
2021/05/28 01:06:35;;;;;;;4.35;3.03;;;;;;;;;;5055070;28;20021;-77
2021/05/28 01:09:00;;;;;;;2.92;2.20;;;;;;;;;;5049922;28;20196;-77
2021/05/28 01:11:25;;;;;;;4.35;2.75;;;;;;;;;;5052530;28;20464;-79
2021/05/28 01:13:50;;;;;;;4.47;2.42;;;;;;;;;;5049086;28;20110;-75
2021/05/28 01:16:16;;;;;;;4.05;2.70;;;;;;;;;;5049565;28;20456;-76
2021/05/28 01:18:41;;;;;;;4.50;2.95;;;;;;;;;;5061449;28;20542;-76
2021/05/28 01:21:07;;;;;;;3.15;2.30;;;;;;;;;;5055209;28;20029;-78
2021/05/28 01:23:33;;;;;;;5.45;2.67;;;;;;;;;;5050703;28;20119;-78
2021/05/28 01:25:58;;;;;;;3.75;2.45;;;;;;;;;;5049812;28;20428;-77
2021/05/28 01:28:23;;;;;;;4.82;2.67;;;;;;;;;;5048029;28;20025;-78
2021/05/28 01:30:48;;;;;;;5.22;2.78;;;;;;;;;;5049782;28;20029;-77
2021/05/28 01:33:13;;;;;;;3.33;2.55;;;;;;;;;;5047898;28;20049;-77
2021/05/28 01:35:39;;;;;;;6.03;2.95;;;;;;;;;;5055913;28;20025;-78
2021/05/28 01:38:05;;;;;;;3.90;2.55;;;;;;;;;;5054776;28;20103;-77
2021/05/28 01:40:30;;;;;;;5.05;2.90;;;;;;;;;;5059427;28;20071;-77
2021/05/28 01:42:56;;;;;;;4.35;2.38;;;;;;;;;;5055758;28;20574;-76
2021/05/28 01:45:21;;;;;;;5.80;2.58;;;;;;;;;;5048093;28;20040;-76
2021/05/28 01:47:46;;;;;;;3.88;2.60;;;;;;;;;;5055488;28;20073;-77
2021/05/28 01:50:12;;;;;;;3.45;2.15;;;;;;;;;;5057049;28;20032;-76
2021/05/28 01:52:37;;;;;;;5.57;2.70;;;;;;;;;;5053558;28;20151;-76
2021/05/28 01:55:03;;;;;;;3.78;2.40;;;;;;;;;;5048036;28;20013;-76
2021/05/28 01:57:29;;;;;;;3.45;2.45;;;;;;;;;;5049571;28;20491;-77
2021/05/28 01:59:54;;;;;;;3.63;2.50;;;;;;;;;;5056416;28;20052;-77
2021/05/28 02:02:19;;;;;;;2.97;2.20;;;;;;;;;;5046207;28;20115;-76
2021/05/28 02:04:44;;;;;;;4.13;2.60;;;;;;;;;;5053942;28;20071;-75
2021/05/28 02:07:10;;;;;;;4.10;2.50;;;;;;;;;;5058361;28;20435;-77
2021/05/28 02:09:36;;;;;;;4.15;2.63;;;;;;;;;;5054122;28;20476;-77
2021/05/28 02:12:01;;;;;;;2.70;2.20;;;;;;;;;;5060652;28;20489;-77
2021/05/28 02:14:27;;;;;;;4.30;2.95;;;;;;;;;;5050922;28;20031;-78
2021/05/28 02:16:52;;;;;;;5.20;2.85;;;;;;;;;;5051685;28;20037;-76
2021/05/28 02:19:18;;;;;;;3.60;2.70;;;;;;;;;;5066288;28;20112;-77
2021/05/28 02:21:43;;;;;;;6.35;3.05;;;;;;;;;;5053041;28;20040;-76
2021/05/28 02:24:12;;;;;;;4.10;2.78;;;;;;;;;;5054132;28;20037;-76
2021/05/28 02:26:37;;;;;;;4.47;2.78;;;;;;;;;;5066064;28;20028;-76
2021/05/28 02:29:02;;;;;;;6.63;3.08;;;;;;;;;;5037226;28;20029;-77
2021/05/28 02:31:27;;;;;;;3.47;2.55;;;;;;;;;;5065156;28;20016;-77
2021/05/28 02:33:53;;;;;;;5.55;2.70;;;;;;;;;;5059784;28;20057;-76
2021/05/28 02:36:18;;;;;;;4.53;2.70;;;;;;;;;;5056601;28;20043;-77
2021/05/28 02:38:43;;;;;;;4.00;2.40;;;;;;;;;;5065486;28;20108;-77
2021/05/28 02:41:08;;;;;;;5.55;3.10;;;;;;;;;;5049339;28;20029;-77
2021/05/28 02:43:36;;;;;;;4.00;2.75;;;;;;;;;;5072342;28;20090;-78
2021/05/28 02:46:01;;;;;;;4.50;3.00;;;;;;;;;;5057577;28;20025;-78
2021/05/28 02:48:26;;;;;;;4.35;2.80;;;;;;;;;;5058405;28;20108;-78
2021/05/28 02:50:51;;;;;;;4.45;2.45;;;;;;;;;;5054366;28;20045;-76
2021/05/28 02:53:17;;;;;;;5.45;2.90;;;;;;;;;;5065476;28;20025;-77
2021/05/28 02:55:42;;;;;;;5.72;2.70;;;;;;;;;;5055578;28;20048;-77
2021/05/28 02:58:08;;;;;;;3.88;2.75;;;;;;;;;;5058746;28;20033;-78
2021/05/28 03:00:33;;;;;;;4.70;2.80;;;;;;;;;;5055565;28;20016;-77
2021/05/28 03:02:58;;;;;;;4.60;2.83;;;;;;;;;;5069463;28;20054;-77
2021/05/28 03:05:24;;;;;;;4.50;2.80;;;;;;;;;;5059572;28;20040;-79
2021/05/28 03:07:49;;;;;;;5.07;3.13;;;;;;;;;;5051509;28;20040;-77
2021/05/28 03:10:14;;;;;;;4.38;2.85;;;;;;;;;;5053461;28;20122;-76
2021/05/28 03:12:40;;;;;;;9.88;3.13;;;;;;;;;;5057374;28;20548;-76
2021/05/28 03:15:06;;;;;;;5.40;3.13;;;;;;;;;;5052410;28;20100;-77
2021/05/28 03:17:31;;;;;;;5.95;3.03;;;;;;;;;;5054571;28;20114;-76
2021/05/28 03:19:57;;;;;;;8.20;3.38;;;;;;;;;;5051855;28;20087;-77
2021/05/28 03:22:32;;;;;;;4.63;3.30;;;;;;;;;;5054610;28;20035;-77
2021/05/28 03:24:58;;;;;;;4.80;3.20;;;;;;;;;;5055071;28;20041;-76
2021/05/28 03:27:23;;;;;;;6.13;3.40;;;;;;;;;;5049343;28;20860;-77
2021/05/28 03:29:49;;;;;;;5.47;3.08;;;;;;;;;;5054435;28;20086;-77
2021/05/28 03:32:14;;;;;;;4.53;3.30;;;;;;;;;;5064594;28;20106;-76
2021/05/28 03:34:39;;;;;;;7.78;3.67;;;;;;;;;;5050415;28;20388;-77
2021/05/28 03:37:05;;;;;;;4.85;3.30;;;;;;;;;;5049265;28;20148;-78
2021/05/28 03:39:30;;;;;;;4.78;3.22;;;;;;;;;;5050526;28;20028;-76
2021/05/28 03:41:55;;;;;;;6.85;3.58;;;;;;;;;;5050869;28;20036;-77
2021/05/28 03:44:20;;;;;;;5.78;3.35;;;;;;;;;;5057320;28;20036;-77
2021/05/28 03:46:45;;;;;;;4.30;3.17;;;;;;;;;;5059207;28;20028;-76
2021/05/28 03:49:11;;;;;;;4.93;3.30;;;;;;;;;;5050787;28;20017;-75
2021/05/28 03:51:36;;;;;;;7.97;3.80;;;;;;;;;;5050507;28;20025;-77
2021/05/28 03:54:01;;;;;;;4.60;3.13;;;;;;;;;;5063481;28;20528;-77
2021/05/28 03:56:26;;;;;;;4.75;3.33;;;;;;;;;;5052716;28;20395;-77
2021/05/28 03:58:51;;;;;;;4.07;2.90;;;;;;;;;;5051383;28;20488;-77
2021/05/28 04:01:17;;;;;;;5.55;3.58;;;;;;;;;;5051707;28;20036;-76
2021/05/28 04:03:42;;;;;;;5.63;2.78;;;;;;;;;;5061660;28;20028;-77
2021/05/28 04:06:07;;;;;;;5.85;3.03;;;;;;;;;;5063719;28;20336;-77
2021/05/28 04:08:32;;;;;;;5.85;3.40;;;;;;;;;;5051775;28;20057;-77
2021/05/28 04:10:57;;;;;;;3.97;2.88;;;;;;;;;;5050166;28;20073;-77
2021/05/28 04:13:28;;;;;;;3.90;2.83;;;;;;;;;;5058846;28;20033;-76
2021/05/28 04:15:53;;;;;;;9.02;3.10;;;;;;;;;;5052269;28;20384;-76
2021/05/28 04:18:18;;;;;;;4.30;2.90;;;;;;;;;;5050256;28;20033;-77
2021/05/28 04:20:44;;;;;;;5.00;3.00;;;;;;;;;;5056583;28;20044;-77
2021/05/28 04:23:09;;;;;;;4.85;2.78;;;;;;;;;;5049055;28;20028;-77
2021/05/28 04:25:34;;;;;;;5.28;2.97;;;;;;;;;;5049481;28;20053;-77
2021/05/28 04:27:59;;;;;;;4.63;2.97;;;;;;;;;;5056199;28;20028;-77
2021/05/28 04:30:24;;;;;;;5.18;3.20;;;;;;;;;;5059327;28;20533;-78
2021/05/28 04:32:51;;;;;;;5.70;3.53;;;;;;;;;;5059152;28;20052;-77
2021/05/28 04:35:16;;;;;;;3.85;2.97;;;;;;;;;;5056334;28;20036;-77
2021/05/28 04:37:41;;;;;;;3.92;2.85;;;;;;;;;;5059044;28;20024;-76
2021/05/28 04:40:06;;;;;;;4.55;3.13;;;;;;;;;;5056476;28;20024;-75
2021/05/28 04:42:32;;;;;;;3.47;2.40;;;;;;;;;;5050649;28;20067;-76
2021/05/28 04:44:57;;;;;;;4.35;2.70;;;;;;;;;;5058315;28;20028;-76
2021/05/28 04:47:22;;;;;;;4.18;2.46;;;;;;;;;;5055837;28;20072;-77
2021/05/28 04:49:47;;;;;;;4.13;2.53;;;;;;;;;;5050420;28;20039;-78
2021/05/28 04:52:12;;;;;;;4.68;2.67;;;;;;;;;;5052874;28;20025;-76
2021/05/28 04:54:37;;;;;;;3.97;2.55;;;;;;;;;;5056339;28;20024;-76
2021/05/28 04:57:03;;;;;;;3.58;2.42;;;;;;;;;;5049390;28;20025;-76
2021/05/28 04:59:28;;;;;;;3.50;2.50;;;;;;;;;;5050250;28;20096;-78
2021/05/28 05:01:53;;;;;;;3.85;2.30;;;;;;;;;;5048855;28;20043;-77
2021/05/28 05:04:18;;;;;;;6.15;2.13;;;;;;;;;;5055978;28;20037;-77
2021/05/28 05:06:43;;;;;;;2.67;2.00;;;;;;;;;;5055954;28;20021;-76
2021/05/28 05:09:08;;;;;;;3.65;2.10;;;;;;;;;;5055602;28;20531;-75
2021/05/28 05:11:34;;;;;;;3.50;2.25;;;;;;;;;;5048738;28;20032;-77
2021/05/28 05:13:59;;;;;;;4.57;2.00;;;;;;;;;;5062245;28;20068;-78
2021/05/28 05:16:24;;;;;;;3.70;1.48;;;;;;;;;;5048136;28;20017;-76
2021/05/28 05:18:50;;;;;;;3.17;1.90;;;;;;;;;;5057528;28;20361;-77
2021/05/28 05:21:16;;;;;;;4.75;1.95;;;;;;;;;;5055928;28;20159;-77
2021/05/28 05:23:41;;;;;;;3.25;2.00;;;;;;;;;;5041692;28;20161;-77
2021/05/28 05:26:06;;;;;;;4.25;2.00;;;;;;;;;;5042576;28;20009;-77
2021/05/28 05:28:31;;;;;;;4.03;2.30;;;;;;;;;;5025718;28;20033;-78
2021/05/28 05:30:56;;;;;;;3.72;1.98;;;;;;;;;;5042081;28;20013;-78
2021/05/28 05:33:22;;;;;;;3.15;2.10;;;;;;;;;;5045952;28;20045;-78
2021/05/28 05:35:47;;;;;;;3.70;1.90;;;;;;;;;;5047975;28;20061;-76
2021/05/28 05:38:12;;;;;;;2.67;1.85;;;;;;;;;;5025559;28;20415;-77
2021/05/28 05:40:38;;;;;;;3.13;1.90;;;;;;;;;;5047027;28;20457;-78
2021/05/28 05:43:03;;;;;;;3.67;1.90;;;;;;;;;;5037555;28;20022;-75
2021/05/28 05:45:29;;;;;;;2.85;1.80;;;;;;;;;;5049583;28;20037;-75
2021/05/28 05:47:54;;;;;;;3.95;1.90;;;;;;;;;;5047479;28;20407;-76
2021/05/28 05:50:20;;;;;;;6.88;1.83;;;;;;;;;;5038106;28;20511;-76
2021/05/28 05:52:45;;;;;;;3.30;1.77;;;;;;;;;;5058865;28;20108;-74
2021/05/28 05:55:10;;;;;;;3.70;1.90;;;;;;;;;;5056136;28;20478;-74
2021/05/28 05:57:35;;;;;;;2.90;1.95;;;;;;;;;;5061384;28;20029;-74
2021/05/28 06:00:01;;;;;;;4.03;1.70;;;;;;;;;;5063732;28;20095;-74
2021/05/28 06:02:27;;;;;;;4.60;1.77;;;;;;;;;;5054588;28;20127;-76
2021/05/28 06:04:52;;;;;;;3.58;1.50;;;;;;;;;;5055398;28;20052;-75
2021/05/28 06:07:18;;;;;;;2.50;1.60;;;;;;;;;;5054212;28;20017;-74
2021/05/28 06:09:43;;;;;;;3.55;1.48;;;;;;;;;;5080022;28;20021;-75
2021/05/28 06:12:08;;;;;;;4.53;1.63;;;;;;;;;;5065694;28;20365;-75
2021/05/28 06:14:33;;;;;;;4.45;1.60;;;;;;;;;;5069090;28;20321;-77
2021/05/28 06:16:58;;;;;;;3.77;1.53;;;;;;;;;;5055803;28;20017;-73
2021/05/28 06:19:24;;;;;;;1.57;1.20;;;;;;;;;;5058995;28;20295;-74
2021/05/28 06:21:49;;;;;;;3.70;1.57;;;;;;;;;;5052773;28;20279;-75
2021/05/28 06:24:14;;;;;;;3.75;1.33;;;;;;;;;;5038082;28;20315;-76
2021/05/28 06:26:40;;;;;;;3.38;1.30;;;;;;;;;;5057770;28;20024;-76
2021/05/28 06:29:06;;;;;;;2.90;1.27;;;;;;;;;;5054237;28;20013;-76
2021/05/28 06:31:32;;;;;;;2.50;1.48;;;;;;;;;;5067568;28;20085;-77
2021/05/28 06:33:57;;;;;;;2.90;1.45;;;;;;;;;;5054191;28;20053;-78
2021/05/28 06:36:22;;;;;;;4.68;2.13;;;;;;;;;;5074860;28;20025;-75
2021/05/28 06:38:48;;;;;;;3.20;1.70;;;;;;;;;;5052700;28;20368;-76
2021/05/28 06:41:13;;;;;;;2.25;1.40;;;;;;;;;;5057987;28;20028;-77
2021/05/28 06:43:38;;;;;;;3.23;1.77;;;;;;;;;;5054036;28;20041;-76
2021/05/28 06:46:03;;;;;;;2.93;1.60;;;;;;;;;;5054581;28;20272;-76
2021/05/28 06:48:28;;;;;;;4.30;1.60;;;;;;;;;;5053536;28;20287;-75
2021/05/28 06:50:53;;;;;;;2.30;1.50;;;;;;;;;;5057061;28;20086;-76
2021/05/28 06:53:19;;;;;;;4.53;1.80;;;;;;;;;;5060680;28;20758;-76
2021/05/28 06:55:44;;;;;;;2.63;1.83;;;;;;;;;;5044805;28;20316;-77
2021/05/28 06:58:09;;;;;;;3.87;1.90;;;;;;;;;;5054333;28;20032;-77
2021/05/28 07:00:34;;;;;;;2.20;1.60;;;;;;;;;;5066710;28;20662;-77
2021/05/28 07:03:00;;;;;;;3.30;2.10;;;;;;;;;;5055589;28;20033;-78
2021/05/28 07:05:27;;;;;;;2.63;1.70;;;;;;;;;;5051894;28;20146;-78
2021/05/28 07:07:53;;;;;;;3.47;1.80;;;;;;;;;;5067060;28;20016;-77
2021/05/28 07:10:18;;;;;;;2.33;1.80;;;;;;;;;;5062971;28;20809;-77
2021/05/28 07:12:43;;;;;;;3.33;2.05;;;;;;;;;;5051972;28;20049;-79
2021/05/28 07:15:08;;;;;;;2.40;1.70;;;;;;;;;;5058524;28;20024;-78
2021/05/28 07:17:34;;;;;;;3.40;2.10;;;;;;;;;;5052226;28;20063;-77
2021/05/28 07:19:59;;;;;;;3.47;2.05;;;;;;;;;;5071045;28;20048;-77
2021/05/28 07:22:24;;;;;;;3.13;2.10;;;;;;;;;;5051457;28;20017;-77
2021/05/28 07:24:49;;;;;;;3.10;2.20;;;;;;;;;;5056106;28;20115;-77
2021/05/28 07:27:15;;;;;;;4.28;2.30;;;;;;;;;;5069982;28;20278;-78
2021/05/28 07:29:40;;;;;;;5.50;2.30;;;;;;;;;;5065853;28;20016;-78
2021/05/28 07:32:05;;;;;;;2.77;2.10;;;;;;;;;;5069929;28;20050;-77
2021/05/28 07:34:30;;;;;;;3.38;2.08;;;;;;;;;;5066368;28;20611;-77
2021/05/28 07:36:55;;;;;;;3.75;2.20;;;;;;;;;;5055901;28;20129;-76
2021/05/28 07:39:21;;;;;;;4.47;2.50;;;;;;;;;;5056731;28;20021;-75
2021/05/28 07:41:46;;;;;;;7.53;2.60;;;;;;;;;;5058817;28;20275;-77
2021/05/28 07:44:11;;;;;;;4.38;2.35;;;;;;;;;;5049557;28;20050;-76
2021/05/28 07:46:43;;;;;;;3.45;2.13;;;;;;;;;;5052577;28;20025;-77
2021/05/28 07:49:08;;;;;;;4.25;2.22;;;;;;;;;;5048444;28;20032;-77
2021/05/28 07:51:33;;;;;;;4.78;2.55;;;;;;;;;;5049024;28;20009;-77
2021/05/28 07:53:58;;;;;;;2.50;2.03;;;;;;;;;;5049515;28;20033;-79
2021/05/28 07:56:24;;;;;;;4.80;2.58;;;;;;;;;;5048630;28;20480;-77
2021/05/28 07:58:49;;;;;;;3.90;2.42;;;;;;;;;;5045887;28;20080;-79
2021/05/28 08:01:14;;;;;;;3.80;2.50;;;;;;;;;;5061838;28;20108;-77
2021/05/28 08:03:39;;;;;;;4.75;2.50;;;;;;;;;;5050406;28;20307;-76
2021/05/28 08:06:05;;;;;;;5.57;3.03;;;;;;;;;;5038552;28;20020;-77
2021/05/28 08:08:30;;;;;;;5.25;2.60;;;;;;;;;;5044591;28;20155;-76
2021/05/28 08:10:55;;;;;;;6.60;2.53;;;;;;;;;;5059109;28;20017;-77
2021/05/28 08:13:21;;;;;;;6.90;2.95;;;;;;;;;;5058160;28;20364;-75
2021/05/28 08:15:47;;;;;;;5.88;2.90;;;;;;;;;;5047537;28;20104;-77
2021/05/28 08:18:12;;;;;;;5.30;2.60;;;;;;;;;;5051182;28;20017;-77
2021/05/28 08:20:38;;;;;;;4.60;2.60;;;;;;;;;;5052593;28;20020;-77
2021/05/28 08:23:03;;;;;;;3.53;2.83;;;;;;;;;;5050102;28;20070;-78
2021/05/28 08:25:28;;;;;;;6.30;2.70;;;;;;;;;;5061573;28;20025;-77
2021/05/28 08:27:54;;;;;;;5.10;2.78;;;;;;;;;;5056737;28;20608;-77
2021/05/28 08:30:20;;;;;;;4.07;2.83;;;;;;;;;;5050718;28;20028;-77
2021/05/28 08:32:45;;;;;;;4.65;2.97;;;;;;;;;;5054890;28;20068;-75
2021/05/28 08:35:11;;;;;;;4.00;2.50;;;;;;;;;;5052392;28;20025;-76
2021/05/28 08:37:37;;;;;;;3.80;2.80;;;;;;;;;;5045389;28;20558;-77
2021/05/28 08:40:03;;;;;;;4.25;2.75;;;;;;;;;;5050167;28;20421;-75
2021/05/28 08:42:29;;;;;;;4.25;2.92;;;;;;;;;;5050676;28;20021;-77
2021/05/28 08:44:55;;;;;;;4.78;2.65;;;;;;;;;;5047118;28;20127;-77
2021/05/28 08:47:20;;;;;;;4.65;2.97;;;;;;;;;;5048348;28;20132;-76
2021/05/28 08:49:46;;;;;;;6.63;3.53;;;;;;;;;;5050047;28;20028;-76
2021/05/28 08:52:12;;;;;;;4.45;2.67;;;;;;;;;;5045586;28;20075;-75
2021/05/28 08:54:37;;;;;;;7.28;3.83;;;;;;;;;;5044790;28;20472;-76
2021/05/28 08:57:02;;;;;;;5.43;3.30;;;;;;;;;;5051741;28;20162;-77
2021/05/28 08:59:27;;;;;;;4.65;3.10;;;;;;;;;;5048917;28;20280;-77
2021/05/28 09:01:53;;;;;;;5.00;3.50;;;;;;;;;;5061459;28;20099;-77
2021/05/28 09:04:19;;;;;;;4.65;3.70;;;;;;;;;;5048891;28;20441;-77
2021/05/28 09:06:45;;;;;;;4.38;3.25;;;;;;;;;;5051796;28;20029;-76
2021/05/28 09:09:12;;;;;;;7.03;3.67;;;;;;;;;;5049698;28;20036;-76
2021/05/28 09:11:49;;;;;;;5.25;2.95;;;;;;;;;;5046552;28;20083;-76
2021/05/28 09:14:27;;;;;;;7.40;3.65;;;;;;;;;;5047718;28;20048;-77
2021/05/28 09:16:53;;;;;;;4.40;2.83;;;;;;;;;;5047944;28;20025;-77
2021/05/28 09:19:22;;;;;;;5.57;2.53;;;;;;;;;;5047474;28;20440;-78
2021/05/28 09:21:53;;;;;;;3.85;2.38;;;;;;;;;;5062718;28;20271;-76
2021/05/28 09:24:31;;;;;;;5.47;2.80;;;;;;;;;;5059355;28;20089;-77
2021/05/28 09:26:56;;;;;;;4.97;2.67;;;;;;;;;;5051803;28;20123;-77
2021/05/28 09:29:21;;;;;;;3.63;2.33;;;;;;;;;;5064011;28;20115;-78
2021/05/28 09:31:46;;;;;;;6.35;2.92;;;;;;;;;;5053833;28;20416;-77
2021/05/28 09:34:12;;;;;;;4.43;2.50;;;;;;;;;;5049179;28;20056;-76
2021/05/28 09:36:37;;;;;;;3.58;2.38;;;;;;;;;;5062209;28;20562;-77
2021/05/28 09:39:15;;;;;;;3.72;2.15;;;;;;;;;;5050878;28;20384;-77
2021/05/28 09:41:49;;;;;;;3.85;2.30;;;;;;;;;;5056812;28;20021;-78
2021/05/28 09:44:14;;;;;;;4.57;2.53;;;;;;;;;;5056876;28;20094;-76
2021/05/28 09:46:59;;;;;;;3.97;2.55;;;;;;;;;;5070397;28;20531;-77
2021/05/28 09:49:25;;;;;;;5.47;2.55;;;;;;;;;;5063856;28;20024;-78
2021/05/28 09:52:05;;;;;;;5.10;2.40;;;;;;;;;;5054680;28;20036;-76
2021/05/28 09:54:30;;;;;;;5.25;2.70;;;;;;;;;;5049592;28;20050;-78
2021/05/28 09:56:56;;;;;;;4.00;2.42;;;;;;;;;;5050064;28;20025;-77
2021/05/28 09:59:21;;;;;;;5.93;2.55;;;;;;;;;;5059144;28;20035;-77
2021/05/28 10:01:56;;;;;;;4.00;2.97;;;;;;;;;;5060112;28;20102;-77
2021/05/28 10:04:22;;;;;;;4.55;3.42;;;;;;;;;;5057602;28;20067;-78
2021/05/28 10:06:48;;;;;;;3.47;2.42;;;;;;;;;;5050105;28;20021;-77
2021/05/28 10:09:13;;;;;;;5.75;3.47;;;;;;;;;;5047864;28;20082;-76
2021/05/28 10:11:39;;;;;;;4.95;3.10;;;;;;;;;;5057751;28;20025;-77
2021/05/28 10:14:05;;;;;;;5.45;3.00;;;;;;;;;;5054654;28;20032;-77
2021/05/28 10:16:31;;;;;;;4.75;3.05;;;;;;;;;;5048066;28;20021;-76
2021/05/28 10:18:57;;;;;;;4.22;2.88;;;;;;;;;;5052133;28;20035;-78
2021/05/28 10:21:23;;;;;;;6.82;2.72;;;;;;;;;;5039251;28;20038;-77
2021/05/28 10:23:49;;;;;;;3.63;2.60;;;;;;;;;;5049650;28;20033;-77
2021/05/28 10:26:15;;;;;;;4.25;2.97;;;;;;;;;;5062898;28;20013;-76
2021/05/28 10:28:45;;;;;;;4.15;2.85;;;;;;;;;;5055911;28;20039;-76
2021/05/28 10:31:11;;;;;;;3.55;2.90;;;;;;;;;;5047442;28;20472;-77
2021/05/28 10:33:36;;;;;;;6.68;2.50;;;;;;;;;;5046856;28;20107;-77
2021/05/28 10:36:03;;;;;;;4.05;2.90;;;;;;;;;;5049812;28;20055;-77
2021/05/28 10:38:48;;;;;;;4.05;3.25;;;;;;;;;;5056879;28;20164;-77
2021/05/28 10:41:13;;;;;;;5.07;2.78;;;;;;;;;;5068656;28;20024;-77
2021/05/28 10:43:57;;;;;;;4.93;3.00;;;;;;;;;;5051397;28;20087;-76
2021/05/28 10:46:22;;;;;;;6.82;3.05;;;;;;;;;;5050900;28;20885;-77
2021/05/28 10:48:48;;;;;;;5.78;3.05;;;;;;;;;;5068201;28;20017;-76
2021/05/28 10:51:13;;;;;;;3.97;2.72;;;;;;;;;;5062428;28;20056;-76
2021/05/28 10:53:38;;;;;;;3.78;2.90;;;;;;;;;;5056774;28;20271;-76
2021/05/28 10:56:08;;;;;;;6.15;3.00;;;;;;;;;;5052267;28;20298;-77
2021/05/28 10:58:52;;;;;;;6.47;3.20;;;;;;;;;;5067935;28;20024;-77
2021/05/28 11:01:32;;;;;;;5.80;2.80;;;;;;;;;;5060683;28;20067;-77
2021/05/28 11:03:58;;;;;;;6.15;2.90;;;;;;;;;;5047133;28;20119;-77
2021/05/28 11:06:24;;;;;;;4.00;2.70;;;;;;;;;;5064890;28;20112;-77
2021/05/28 11:08:51;;;;;;;4.68;2.78;;;;;;;;;;5071370;28;20020;-78
2021/05/28 11:11:35;;;;;;;4.03;2.65;;;;;;;;;;5053222;28;20017;-77
2021/05/28 11:14:01;;;;;;;4.20;2.47;;;;;;;;;;5064782;28;20466;-76
2021/05/28 11:16:27;;;;;;;4.75;3.28;;;;;;;;;;5066072;28;20464;-76
2021/05/28 11:18:53;;;;;;;5.07;3.65;;;;;;;;;;5076943;28;20099;-76
2021/05/28 11:21:22;;;;;;;4.68;3.40;;;;;;;;;;5058380;28;20044;-77
2021/05/28 11:23:48;;;;;;;5.53;3.30;;;;;;;;;;5043552;28;20123;-77
2021/05/28 11:26:15;;;;;;;4.93;3.28;;;;;;;;;;5045146;28;20475;-77
2021/05/28 11:28:57;;;;;;;5.43;3.22;;;;;;;;;;5051913;28;20021;-77
2021/05/28 11:31:23;;;;;;;6.18;3.40;;;;;;;;;;5054877;28;20021;-77
2021/05/28 11:33:54;;;;;;;3.85;3.03;;;;;;;;;;5063261;28;20068;-77
2021/05/28 11:36:45;;;;;;;5.75;3.63;;;;;;;;;;5036193;28;20048;-77
2021/05/28 11:39:19;;;;;;;5.30;3.60;;;;;;;;;;5053871;28;20112;-78
2021/05/28 11:41:59;;;;;;;5.55;3.95;;;;;;;;;;5057397;28;20123;-77
2021/05/28 11:44:25;;;;;;;4.15;3.20;;;;;;;;;;5045425;28;20938;-76
2021/05/28 11:46:51;;;;;;;4.82;3.03;;;;;;;;;;5064380;28;20372;-76
2021/05/28 11:49:17;;;;;;;3.72;2.53;;;;;;;;;;5057893;28;20358;-76
2021/05/28 11:51:43;;;;;;;4.32;2.80;;;;;;;;;;5070918;28;20038;-77
2021/05/28 11:54:22;;;;;;;5.25;2.92;;;;;;;;;;5060746;28;20044;-77
2021/05/28 11:56:52;;;;;;;7.75;3.40;;;;;;;;;;5052364;28;20033;-76
2021/05/28 11:59:17;;;;;;;6.10;3.42;;;;;;;;;;5070330;28;20083;-76
2021/05/28 12:01:43;;;;;;;8.02;3.20;;;;;;;;;;5057048;28;20067;-78
2021/05/28 12:04:15;;;;;;;4.53;3.13;;;;;;;;;;5058145;28;20024;-75
2021/05/28 12:06:40;;;;;;;4.78;3.20;;;;;;;;;;5056819;28;20066;-76
2021/05/28 12:09:05;;;;;;;6.00;3.23;;;;;;;;;;5057972;28;20649;-76
2021/05/28 12:11:31;;;;;;;4.75;3.42;;;;;;;;;;5070301;28;20286;-77
2021/05/28 12:13:56;;;;;;;5.32;3.90;;;;;;;;;;5057371;28;20782;-77
2021/05/28 12:16:21;;;;;;;6.82;4.35;;;;;;;;;;5058053;28;20040;-77
2021/05/28 12:18:47;;;;;;;8.07;4.03;;;;;;;;;;5063446;28;20364;-77
2021/05/28 12:21:17;;;;;;;6.40;4.13;;;;;;;;;;5058321;28;20021;-76
2021/05/28 12:23:43;;;;;;;5.85;4.10;;;;;;;;;;5050828;28;20075;-77
2021/05/28 12:26:10;;;;;;;5.25;3.95;;;;;;;;;;5062927;28;20628;-79
2021/05/28 12:28:39;;;;;;;5.20;4.10;;;;;;;;;;5052051;28;20048;-77
2021/05/28 12:31:07;;;;;;;5.88;4.07;;;;;;;;;;5069265;28;20081;-77
2021/05/28 12:33:34;;;;;;;5.70;3.63;;;;;;;;;;5051176;28;20567;-76
2021/05/28 12:36:00;;;;;;;6.63;4.47;;;;;;;;;;5051169;28;20025;-77
2021/05/28 12:38:32;;;;;;;4.93;3.45;;;;;;;;;;5063538;28;20490;-77
2021/05/28 12:40:57;;;;;;;5.95;3.42;;;;;;;;;;5057019;28;20029;-77
2021/05/28 12:43:27;;;;;;;9.00;4.35;;;;;;;;;;5063849;28;20040;-79
2021/05/28 12:45:52;;;;;;;;;;;;;;;;;;5064064;28;20027;-77
2021/05/28 12:48:17;;;;;;;8.32;4.10;;;;;;;;;;5057530;28;20007;-77
2021/05/28 12:50:43;;;;;;;5.75;3.70;;;;;;;;;;5055912;28;20055;-79
2021/05/28 12:53:10;;;;;;;4.43;3.05;;;;;;;;;;5056700;28;20027;-78
2021/05/28 12:55:36;;;;;;;3.45;2.67;;;;;;;;;;5055485;28;20023;-78
2021/05/28 12:58:02;;;;;;;3.53;2.92;;;;;;;;;;5065960;28;20075;-78
2021/05/28 13:00:31;;;;;;;3.63;2.92;;;;;;;;;;5053848;28;20024;-76
2021/05/28 13:02:56;;;;;;;7.20;3.60;;;;;;;;;;5069324;28;20036;-76
2021/05/28 13:05:30;;;;;;;4.65;3.40;;;;;;;;;;5066112;28;20028;-75
2021/05/28 13:07:55;;;;;;;5.30;3.28;;;;;;;;;;5063320;28;20417;-77
2021/05/28 13:10:22;;;;;;;5.68;3.35;;;;;;;;;;5051324;28;20025;-76
2021/05/28 13:12:47;;;;;;;5.80;3.35;;;;;;;;;;5055164;28;20095;-76
2021/05/28 13:15:18;;;;;;;5.10;4.05;;;;;;;;;;5060713;28;20079;-76
2021/05/28 13:17:51;;;;;;;5.13;3.65;;;;;;;;;;5063597;28;20009;-77
2021/05/28 13:20:16;;;;;;;6.43;3.83;;;;;;;;;;5058057;28;20488;-76
2021/05/28 13:22:43;;;;;;;8.00;3.97;;;;;;;;;;5061128;28;20031;-76
2021/05/28 13:25:28;;;;;;;5.53;3.75;;;;;;;;;;5052341;28;20496;-77
2021/05/28 13:28:03;;;;;;;5.50;3.78;;;;;;;;;;5069015;28;20035;-77
2021/05/28 13:30:32;;;;;;;5.82;3.67;;;;;;;;;;5068734;28;20475;-77
2021/05/28 13:33:10;;;;;;;4.32;3.40;;;;;;;;;;5036482;28;20064;-77
2021/05/28 13:35:35;;;;;;;6.65;2.95;;;;;;;;;;5064526;28;20460;-76
2021/05/28 13:38:00;;;;;;;5.80;3.90;;;;;;;;;;5069136;28;20078;-77
2021/05/28 13:40:26;;;;;;;7.03;3.80;;;;;;;;;;5061309;28;20618;-77
2021/05/28 13:42:51;;;;;;;7.65;3.85;;;;;;;;;;5037896;28;20020;-76
2021/05/28 13:45:16;;;;;;;7.70;3.13;;;;;;;;;;5049570;28;20479;-76
2021/05/28 13:47:41;;;;;;;4.70;3.30;;;;;;;;;;5049749;28;20032;-77
2021/05/28 13:50:08;;;;;;;5.38;3.42;;;;;;;;;;5049514;28;20117;-77
2021/05/28 13:52:33;;;;;;;6.70;3.88;;;;;;;;;;5055387;28;20031;-77
2021/05/28 13:54:58;;;;;;;6.32;3.80;;;;;;;;;;5064393;28;20021;-77
2021/05/28 13:57:24;;;;;;;6.72;3.30;;;;;;;;;;5057260;28;20510;-76
2021/05/28 13:59:49;;;;;;;5.90;3.05;;;;;;;;;;5049362;28;20028;-76
2021/05/28 14:02:14;;;;;;;4.68;3.50;;;;;;;;;;5048863;28;20021;-76
2021/05/28 14:04:40;;;;;;;5.10;3.38;;;;;;;;;;5055534;28;20029;-77
2021/05/28 14:07:05;;;;;;;8.30;3.38;;;;;;;;;;5059779;28;20046;-77
2021/05/28 14:09:31;;;;;;;4.88;2.85;;;;;;;;;;5062151;28;20021;-75
2021/05/28 14:11:56;;;;;;;7.15;3.47;;;;;;;;;;5066931;28;20772;-76
2021/05/28 14:14:22;;;;;;;4.85;2.80;;;;;;;;;;5059268;28;20024;-77
2021/05/28 14:16:47;;;;;;;5.47;2.80;;;;;;;;;;5053464;28;20079;-77
2021/05/28 14:19:12;;;;;;;4.43;2.90;;;;;;;;;;5054840;28;20033;-76
2021/05/28 14:21:38;;;;;;;4.63;3.22;;;;;;;;;;5071789;28;20035;-76
2021/05/28 14:24:03;;;;;;;6.30;3.27;;;;;;;;;;5051514;28;20021;-76
2021/05/28 14:26:29;;;;;;;6.03;3.17;;;;;;;;;;5059768;28;20255;-77
2021/05/28 14:28:54;;;;;;;4.82;3.03;;;;;;;;;;5060172;28;20016;-75
2021/05/28 14:31:19;;;;;;;6.22;3.40;;;;;;;;;;5065975;28;20037;-77
2021/05/28 14:36:12;;;;;;;4.78;3.08;;;;;;;;;;5072598;28;20020;-78
2021/05/28 14:38:38;;;;;;;4.13;2.83;;;;;;;;;;5066137;28;20031;-78
2021/05/28 14:41:03;;;;;;;4.73;2.90;;;;;;;;;;5059299;28;20112;-77